Latest Weather Observations for Witchcliffe

IDW60801

Issued at 12:03 pm WST Monday 25 September 2017 (issued every 30 minutes, with the page automatically refreshed every 10 minutes)

About weather observations | Map of weather stations | Latest weather observations for WA | Other Formats
Station Details ID: 009746 Name: WITCHCLIFFE Lat: -34.03 Lon: 115.10 Height: 80.0 m
Data from the previous 72 hours. | See also: Recent months at Witchcliffe
Date/Time
WST
Temp
°C
App
Temp
°C
Dew
Point
°C
Rel
Hum
%
Delta-T
°C
Wind Press
QNH
hPa
Press
MSL
hPa
Rain since
9am
mm
Dir  Spd
km/h
Gust
km/h
Spd
kts
Gust
kts
25/12:00pm 14.1 9.1 8.1 67 3.0 SSE 24 33 13 18 1006.9 1006.9 0.0
25/11:30am 14.0 8.9 7.8 66 3.1 SE 24 37 13 20 1007.0 1007.0 0.0
25/11:00am 11.9 7.6 8.0 77 1.9 SE 20 28 11 15 1007.3 1007.2 0.0
25/10:30am 12.4 9.2 9.8 84 1.3 ESE 17 28 9 15 1007.3 1007.2 0.0
25/10:00am 11.3 7.5 9.9 91 0.7 SE 20 33 11 18 1007.5 1007.4 0.0
25/09:30am 9.7 5.6 8.6 93 0.5 SE 20 30 11 16 1007.6 1007.5 0.0
25/09:00am 9.4 5.3 8.8 96 0.3 SE 20 32 11 17 1007.4 1007.3 23.2
25/08:30am 8.2 4.9 8.1 99 0.0 SE 15 22 8 12 1007.3 1007.2 23.2
25/08:00am 7.2 3.6 6.9 98 0.1 SE 15 20 8 11 1007.3 1007.2 23.2
25/07:30am 7.2 3.6 6.9 98 0.1 SE 15 22 8 12 1007.2 1007.1 23.2
25/07:00am 7.2 3.3 6.9 98 0.1 SE 17 32 9 17 1006.8 1006.8 22.8
25/06:30am 7.4 3.1 7.1 98 0.1 SE 19 30 10 16 1006.4 1006.4 21.6
25/06:00am 7.5 3.1 7.2 98 0.1 SE 20 28 11 15 1006.0 1006.0 19.6
25/05:30am 7.6 3.2 7.3 98 0.1 SE 20 30 11 16 1005.8 1005.8 19.0
25/05:00am 7.7 3.9 7.4 98 0.1 SE 17 28 9 15 1005.7 1005.7 18.4
25/04:30am 8.0 3.8 7.6 97 0.2 SE 19 28 10 15 1005.4 1005.4 17.2
25/04:00am 8.1 4.3 7.5 96 0.3 SE 17 22 9 12 1005.0 1005.0 16.8
25/03:30am 8.0 4.5 7.2 95 0.4 SE 15 26 8 14 1004.8 1004.8 16.8
25/03:00am 8.2 5.1 7.4 95 0.4 SE 13 19 7 10 1004.7 1004.7 16.4
25/02:30am 8.2 5.1 7.4 95 0.4 SE 13 17 7 9 1004.5 1004.5 16.2
25/02:00am 8.3 5.6 7.5 95 0.4 SE 11 17 6 9 1004.5 1004.5 16.2
25/01:30am 8.4 5.4 7.6 95 0.4 SE 13 17 7 9 1004.6 1004.6 16.2
25/01:00am 8.6 5.6 7.8 95 0.4 SE 13 20 7 11 1004.8 1004.8 16.2
25/12:30am 8.5 6.3 7.7 95 0.4 SE 9 17 5 9 1004.8 1004.8 16.2
25/12:00am 8.6 6.0 7.7 94 0.4 SE 11 19 6 10 1004.7 1004.7 16.2
 
Date/Time
WST
Temp
°C
App
Temp
°C
Dew
Point
°C
Rel
Hum
%
Delta-T
°C
Wind Press
QNH
hPa
Press
MSL
hPa
Rain since
9am
mm
Dir  Spd
km/h
Gust
km/h
Spd
kts
Gust
kts
24/11:30pm 8.8 5.8 7.7 93 0.5 SE 13 24 7 13 1004.7 1004.7 16.0
24/11:00pm 8.8 5.5 7.9 94 0.4 ESE 15 24 8 13 1004.9 1004.9 16.0
24/10:30pm 8.8 5.5 8.0 95 0.4 ESE 15 28 8 15 1005.1 1005.1 16.0
24/10:00pm 8.7 5.4 8.1 96 0.3 E 15 22 8 12 1005.2 1005.2 15.8
24/09:30pm 8.6 5.0 8.2 97 0.2 E 17 35 9 19 1005.2 1005.2 15.6
24/09:00pm 8.6 5.0 8.3 98 0.1 E 17 22 9 12 1005.2 1005.2 15.0
24/08:30pm 8.9 6.1 8.6 98 0.1 E 13 19 7 10 1005.3 1005.3 14.0
24/08:00pm 8.9 6.9 8.5 97 0.2 ESE 9 15 5 8 1005.3 1005.3 13.2
24/07:30pm 8.9 6.8 8.1 95 0.4 ESE 9 17 5 9 1005.1 1005.1 12.8
24/07:00pm 8.9 7.1 8.0 94 0.4 ESE 7 13 4 7 1005.1 1005.1 12.2
24/06:30pm 9.0 6.8 7.8 92 0.6 ENE 9 17 5 9 1005.0 1005.0 10.6
24/06:00pm 8.9 5.9 7.5 91 0.7 NE 13 22 7 12 1005.1 1005.1 8.4
24/05:30pm 10.5 8.2 8.9 90 0.8 NE 11 15 6 8 1005.2 1005.2 5.2
24/05:00pm 10.8 9.2 8.7 87 1.0 ESE 7 17 4 9 1004.8 1004.8 4.2
24/04:30pm 11.1 9.4 8.3 83 1.4 SE 7 11 4 6 1004.6 1004.6 3.6
24/04:00pm 11.6 9.8 7.9 78 1.8 SE 7 13 4 7 1004.8 1004.8 2.2
24/03:30pm 11.8 9.2 7.7 76 2.0 SE 11 22 6 12 1004.7 1004.7 2.0
24/03:00pm 11.9 9.4 8.0 77 1.9 SE 11 15 6 8 1004.7 1004.7 2.0
24/02:30pm 12.3 10.6 8.4 77 1.9 S 7 11 4 6 1004.8 1004.8 2.0
24/02:00pm 12.9 12.4 8.0 72 2.4 CALM 0 0 0 0 1005.1 1005.1 0.6
24/01:30pm 12.9 12.1 8.0 72 2.4 E 2 11 1 6 1005.6 1005.6 0.2
24/01:00pm 12.9 9.2 6.5 65 3.1 ENE 15 20 8 11 1005.9 1005.9 0.0
24/12:30pm 14.1 11.6 6.5 60 3.7 ENE 9 13 5 7 1006.1 1006.1 0.0
24/12:00pm 14.1 12.0 6.0 58 3.9 ESE 6 13 3 7 1006.4 1006.4 0.0
24/11:30am 14.2 11.8 7.0 62 3.5 ENE 9 15 5 8 1006.7 1006.7 0.0
24/11:00am 13.0 9.9 5.7 61 3.5 NE 11 17 6 9 1006.9 1006.9 0.0
24/10:30am 13.1 10.2 6.5 64 3.2 NNE 11 17 6 9 1007.5 1007.4 0.0
24/10:00am 13.5 10.5 7.9 69 2.8 NE 13 20 7 11 1007.6 1007.5 0.0
24/09:30am 12.5 9.4 7.4 71 2.5 NE 13 17 7 9 1007.9 1007.8 0.0
24/09:00am 12.4 10.4 10.0 85 1.2 NE 11 20 6 11 1008.1 1008.0 1.8
24/08:30am 10.8 9.2 10.3 97 0.3 NNE 9 15 5 8 1008.2 1008.1 1.8
24/08:00am 9.7 8.3 9.6 99 0.1 NE 7 11 4 6 1008.1 1008.0 1.8
24/07:30am 8.3 7.9 8.2 99 0.0 CALM 0 0 0 0 1007.9 1007.8 1.8
24/07:00am 7.6 7.0 7.5 99 0.0 CALM 0 0 0 0 1008.0 1007.9 1.8
24/06:30am 6.8 6.0 6.7 99 0.0 CALM 0 0 0 0 1008.0 1007.9 1.8
24/06:00am 5.9 4.9 5.8 99 0.0 CALM 0 0 0 0 1008.0 1007.9 1.8
24/05:30am 6.7 5.9 6.6 99 0.0 CALM 0 0 0 0 1008.1 1008.0 1.8
24/05:00am 7.2 6.5 7.1 99 0.0 CALM 0 6 0 3 1008.2 1008.1 1.8
24/04:30am 7.0 6.3 6.9 99 0.0 CALM 0 0 0 0 1008.2 1008.1 1.6
24/04:00am 6.8 6.0 6.7 99 0.0 CALM 0 0 0 0 1008.4 1008.3 1.2
24/03:30am 6.7 5.9 6.6 99 0.0 CALM 0 0 0 0 1008.6 1008.5 1.0
24/03:00am 6.4 5.2 6.3 99 0.0 NNW 2 7 1 4 1008.6 1008.5 1.0
24/02:30am 6.9 6.2 6.8 99 0.0 CALM 0 0 0 0 1008.9 1008.9 1.0
24/02:00am 6.4 5.6 6.3 99 0.0 CALM 0 0 0 0 1009.2 1009.2 1.0
24/01:30am 6.7 5.9 6.6 99 0.0 CALM 0 0 0 0 1009.6 1009.6 1.0
24/01:00am 5.6 4.5 5.3 98 0.1 CALM 0 0 0 0 1009.6 1009.6 0.8
24/12:30am 5.1 3.9 4.5 96 0.3 CALM 0 0 0 0 1009.8 1009.8 0.8
24/12:00am 5.3 4.1 4.6 95 0.3 CALM 0 0 0 0 1010.0 1010.0 0.8
 
Date/Time
WST
Temp
°C
App
Temp
°C
Dew
Point
°C
Rel
Hum
%
Delta-T
°C
Wind Press
QNH
hPa
Press
MSL
hPa
Rain since
9am
mm
Dir  Spd
km/h
Gust
km/h
Spd
kts
Gust
kts
23/11:30pm 5.9 4.8 5.3 96 0.3 CALM 0 0 0 0 1010.1 1010.1 0.8
23/11:00pm 6.4 5.4 5.7 95 0.3 CALM 0 0 0 0 1010.6 1010.6 0.8
23/10:30pm 6.7 5.7 5.8 94 0.4 CALM 0 0 0 0 1011.0 1011.0 0.8
23/10:00pm 7.5 6.7 6.6 94 0.4 CALM 0 0 0 0 1011.4 1011.4 0.8
23/09:30pm 7.9 7.2 6.8 93 0.5 CALM 0 0 0 0 1011.6 1011.6 0.8
23/09:00pm 8.7 8.1 7.6 93 0.5 CALM 0 0 0 0 1011.9 1011.9 0.8
23/08:30pm 8.4 7.7 7.0 91 0.7 CALM 0 0 0 0 1012.1 1012.1 0.8
23/08:00pm 9.2 7.5 7.6 90 0.8 S 6 9 3 5 1012.3 1012.3 0.8
23/07:30pm 9.4 8.8 7.5 88 0.9 CALM 0 0 0 0 1012.2 1012.2 0.8
23/07:00pm 9.6 9.0 7.5 87 1.0 CALM 0 0 0 0 1012.3 1012.3 0.8
23/06:30pm 9.5 7.6 6.9 84 1.2 NNE 6 7 3 4 1012.4 1012.4 0.6
23/06:00pm 10.1 7.3 6.8 80 1.6 N 11 15 6 8 1012.5 1012.5 0.6
23/05:30pm 11.7 9.0 5.8 67 2.8 W 9 19 5 10 1012.4 1012.4 0.2
23/05:00pm 12.8 9.7 5.7 62 3.3 W 11 17 6 9 1012.1 1012.1 0.2
23/04:30pm 13.0 8.8 3.7 53 4.2 W 15 24 8 13 1012.2 1012.2 0.2
23/04:00pm 14.2 10.0 3.9 50 4.7 W 15 26 8 14 1012.0 1012.0 0.2
23/03:30pm 13.1 8.7 5.0 58 3.8 SW 17 26 9 14 1011.9 1011.9 0.2
23/03:00pm 13.9 9.7 3.9 51 4.6 SW 15 22 8 12 1011.8 1011.8 0.2
23/02:30pm 14.8 11.2 4.8 51 4.7 WSW 13 24 7 13 1011.8 1011.8 0.2
23/02:00pm 14.9 10.3 3.7 47 5.1 SW 17 24 9 13 1011.8 1011.8 0.2
23/01:30pm 14.0 9.3 3.2 48 4.9 SW 17 26 9 14 1011.8 1011.8 0.2
23/01:00pm 13.5 8.5 3.6 51 4.5 SW 19 26 10 14 1012.1 1012.1 0.2
23/12:30pm 14.8 9.9 3.9 48 5.0 SW 19 24 10 13 1012.2 1012.2 0.2
23/12:00pm 14.6 10.3 5.4 54 4.4 SSW 17 26 9 14 1012.2 1012.2 0.0
23/11:30am 14.4 10.1 5.2 54 4.3 SW 17 26 9 14 1012.5 1012.5 0.0
23/11:00am 13.3 8.3 4.7 56 4.0 SW 20 30 11 16 1012.5 1012.5 0.0
23/10:30am 13.6 8.7 5.3 57 3.9 SSW 20 32 11 17 1012.5 1012.5 0.0
23/10:00am 12.2 9.3 6.3 67 2.8 SW 11 19 6 10 1012.7 1012.7 0.0
23/09:30am 11.2 5.4 4.4 63 3.1 SW 24 46 13 25 1012.7 1012.7 0.0
23/09:00am 13.2 8.4 4.6 56 4.0 SW 19 33 10 18 1012.1 1012.1 5.4
23/08:30am 11.8 8.7 5.4 65 3.0 SW 11 20 6 11 1011.7 1011.7 5.4
23/08:00am 12.1 7.0 3.3 55 3.9 SW 19 28 10 15 1011.2 1011.2 5.2
23/07:30am 11.2 7.8 5.9 70 2.5 WSW 13 24 7 13 1010.9 1010.9 5.2
23/07:00am 10.4 5.5 5.0 69 2.5 W 20 32 11 17 1010.9 1010.9 5.2
23/06:30am 10.6 5.9 3.2 60 3.2 SW 17 28 9 15 1010.2 1010.2 5.2
23/06:00am 10.3 6.2 4.5 67 2.6 SW 15 30 8 16 1010.1 1010.1 5.2
23/05:30am 11.2 6.2 4.7 64 3.0 SW 20 33 11 18 1009.7 1009.7 5.0
23/05:00am 10.6 6.1 4.1 64 2.9 SW 17 28 9 15 1009.6 1009.6 5.0
23/04:30am 10.8 5.9 5.3 69 2.5 WSW 20 37 11 20 1009.4 1009.4 5.0
23/04:00am 9.9 6.2 6.4 79 1.6 WSW 15 26 8 14 1009.3 1009.3 5.0
23/03:30am 10.4 6.3 6.4 76 1.9 SW 17 24 9 13 1009.3 1009.3 4.6
23/03:00am 9.6 4.8 5.6 76 1.8 SW 20 30 11 16 1009.2 1009.2 4.6
23/02:30am 10.6 6.4 5.8 72 2.2 WSW 17 28 9 15 1009.1 1009.1 4.2
23/02:00am 10.6 6.5 6.0 73 2.1 SW 17 26 9 14 1009.1 1009.1 4.0
23/01:30am 11.6 6.5 4.3 61 3.3 WSW 20 43 11 23 1009.0 1009.0 3.8
23/01:00am 11.0 6.5 4.2 63 3.1 WSW 17 28 9 15 1009.1 1009.1 3.8
23/12:30am 9.9 5.8 4.5 69 2.4 WSW 15 24 8 13 1009.1 1009.1 3.8
23/12:00am 12.1 7.1 4.8 61 3.4 WSW 20 33 11 18 1009.1 1009.1 3.4
 
Date/Time
WST
Temp
°C
App
Temp
°C
Dew
Point
°C
Rel
Hum
%
Delta-T
°C
Wind Press
QNH
hPa
Press
MSL
hPa
Rain since
9am
mm
Dir  Spd
km/h
Gust
km/h
Spd
kts
Gust
kts
22/11:30pm 12.0 7.1 5.0 62 3.2 WSW 20 35 11 19 1009.0 1009.0 3.4
22/11:00pm 12.0 6.9 6.1 67 2.8 WSW 22 32 12 17 1008.8 1008.7 3.4
22/10:30pm 11.9 7.6 6.8 71 2.4 WSW 19 30 10 16 1008.7 1008.6 3.4
22/10:00pm 11.9 7.6 7.2 73 2.3 WSW 19 35 10 19 1008.7 1008.6 3.4
22/09:30pm 11.5 7.1 7.2 75 2.1 WSW 20 37 11 20 1008.6 1008.5 3.4
22/09:00pm 12.2 7.8 6.7 69 2.6 WSW 19 30 10 16 1008.3 1008.2 3.2
22/08:30pm 12.1 7.6 6.8 70 2.5 WSW 20 35 11 19 1008.1 1008.0 3.2
22/08:00pm 12.4 8.4 6.5 67 2.8 SW 17 33 9 18 1007.6 1007.5 3.2
22/07:30pm 12.1 6.9 7.4 73 2.3 SW 24 43 13 23 1007.3 1007.2 3.2
22/07:00pm 11.8 6.8 8.1 78 1.8 SW 24 44 13 24 1006.5 1006.5 3.2
22/06:33pm 11.9 5.9 7.2 73 2.3 SW 28 50 15 27 1006.2 1006.2 3.0
22/06:30pm 12.5 7.7 7.4 71 2.5 SW 22 41 12 22 1006.1 1006.1 3.0
22/06:00pm 12.9 8.6 7.8 71 2.5 SW 20 35 11 19 1005.4 1005.4 3.0
22/05:30pm 12.7 8.5 8.4 75 2.1 SW 20 35 11 19 1004.9 1004.9 2.8
22/05:00pm 12.3 7.4 8.4 77 1.9 SW 24 43 13 23 1004.3 1004.3 2.8
22/04:30pm 13.2 8.0 8.7 74 2.3 SW 26 46 14 25 1003.6 1003.6 2.6
22/04:12pm 13.9 8.0 7.4 65 3.2 SW 28 46 15 25 1003.0 1003.0 2.4
22/04:00pm 14.1 7.4 7.2 63 3.4 SW 32 46 17 25 1002.8 1002.8 2.4
22/03:52pm 14.5 8.7 7.8 64 3.3 SW 28 46 15 25 1002.5 1002.5 2.4
22/03:30pm 14.3 8.1 7.8 65 3.2 SW 30 46 16 25 1002.1 1002.1 2.4
22/03:11pm 14.1 8.4 8.5 69 2.8 SW 28 54 15 29 1001.5 1001.5 2.4
22/03:00pm 13.7 8.5 9.0 73 2.4 WSW 26 43 14 23 1001.2 1001.2 2.4
22/02:34pm 14.0 8.3 8.4 69 2.8 WSW 28 46 15 25 1000.5 1000.5 2.2
22/02:30pm 13.4 7.6 8.0 70 2.7 WSW 28 44 15 24 1000.5 1000.5 2.2
22/02:08pm 14.2 8.3 7.5 64 3.3 WSW 28 46 15 25 1000.0 1000.0 2.2
22/02:00pm 14.6 9.3 8.5 67 3.1 WSW 26 43 14 23 999.8 999.8 2.2
22/01:35pm 13.3 7.7 8.6 73 2.4 WSW 28 46 15 25 999.5 999.5 2.2
22/01:30pm 13.6 7.7 9.1 74 2.3 WSW 30 46 16 25 999.3 999.3 2.2
22/01:00pm 11.2 4.7 6.5 73 2.2 WSW 30 59 16 32 999.1 999.1 2.2
22/12:40pm 15.2 9.7 9.3 68 3.0 W 28 50 15 27 998.4 998.4 0.4
22/12:30pm 13.5 8.7 8.8 73 2.4 W 24 39 13 21 998.5 998.5 0.4
22/12:06pm 13.2 7.3 7.4 68 2.8 W 28 48 15 26 998.1 998.0 0.0

Other Formats:

Comma delimited format used in spreadsheet applications
http://www.bom.gov.au/fwo/IDW60801/IDW60801.95641.axf

JavaScript Object Notation format (JSON) in row-major order
http://www.bom.gov.au/fwo/IDW60801/IDW60801.95641.json